createdAt,value
2019-05-22T00:00:11.325Z,18.45
2019-05-22T00:02:41.268Z,20.65
2019-05-22T00:05:11.591Z,19.30
2019-05-22T00:07:41.900Z,19.85
2019-05-22T00:10:11.838Z,21.50
2019-05-22T00:12:46.911Z,21.42
2019-05-22T00:15:11.732Z,23.12
2019-05-22T00:17:41.663Z,24.12
2019-05-22T00:20:11.610Z,23.25
2019-05-22T00:22:41.538Z,22.65
2019-05-22T00:25:11.478Z,23.50
2019-05-22T00:27:41.409Z,24.82
2019-05-22T00:30:11.743Z,24.63
2019-05-22T00:32:41.664Z,22.87
2019-05-22T00:35:11.642Z,23.45
2019-05-22T00:37:41.565Z,22.98
2019-05-22T00:40:11.891Z,22.98
2019-05-22T00:42:41.445Z,23.05
2019-05-22T00:45:11.701Z,22.22
2019-05-22T00:47:41.627Z,22.37
2019-05-22T00:50:11.571Z,21.87
2019-05-22T00:52:41.500Z,20.97
2019-05-22T00:55:11.776Z,22.52
2019-05-22T00:57:42.110Z,22.20
2019-05-22T01:00:12.045Z,21.48
2019-05-22T01:02:42.260Z,21.62
2019-05-22T01:05:12.214Z,20.88
2019-05-22T01:07:42.143Z,22.40
2019-05-22T03:15:37.290Z,22.95
2019-05-22T03:18:07.243Z,20.30
2019-05-22T03:20:37.449Z,20.32
2019-05-22T03:23:34.784Z,22.67
2019-05-22T03:26:04.714Z,21.52
2019-05-22T03:28:34.665Z,22.85
2019-05-22T03:31:04.981Z,22.17
2019-05-22T03:33:35.366Z,21.05
2019-05-22T03:36:08.167Z,24.55
2019-05-22T03:38:38.117Z,22.10
2019-05-22T03:41:08.506Z,22.80
2019-05-22T03:43:38.334Z,22.00
2019-05-22T03:48:53.026Z,20.35
2019-05-22T03:51:22.942Z,28.30
2019-05-22T03:53:52.876Z,20.00
2019-05-22T03:56:22.818Z,20.95
2019-05-22T03:58:52.771Z,24.15
2019-05-22T04:01:22.705Z,19.87
2019-05-22T04:03:53.002Z,18.60
2019-05-22T04:06:22.935Z,24.10
2019-05-22T04:08:52.883Z,21.93
2019-05-22T04:11:23.125Z,20.35
2019-05-22T04:13:53.077Z,22.02
2019-05-22T04:16:23.000Z,21.48
2019-05-22T04:21:32.623Z,20.65
2019-05-22T04:26:42.180Z,20.47
2019-05-22T04:29:12.133Z,20.05
2019-05-22T04:31:48.240Z,18.70
2019-05-22T04:34:18.429Z,19.37
2019-05-22T04:36:48.377Z,17.40
2019-05-22T04:39:21.599Z,17.17
2019-05-22T04:41:51.506Z,16.87
2019-05-22T04:44:21.478Z,18.92
2019-05-22T04:49:31.066Z,15.93
2019-05-22T04:54:40.334Z,15.23
2019-05-22T04:57:10.250Z,13.40
2019-05-22T04:59:40.521Z,13.70
2019-05-22T05:02:10.847Z,13.40
2019-05-22T05:07:20.705Z,10.87
2019-05-22T05:09:50.658Z,12.07
2019-05-22T05:12:20.935Z,10.70
2019-05-22T05:14:51.210Z,9.55
2019-05-22T05:17:21.132Z,9.40
2019-05-22T05:19:51.051Z,11.10
2019-05-22T05:25:00.317Z,9.60
2019-05-22T05:27:30.228Z,9.15
2019-05-22T05:30:00.173Z,8.38
2019-05-22T05:32:30.126Z,9.30
2019-05-22T05:35:00.423Z,10.72
2019-05-22T05:37:30.342Z,9.85
2019-05-22T05:40:03.318Z,9.40
2019-05-22T05:42:33.539Z,8.75
2019-05-22T05:45:03.471Z,11.53
2019-05-22T05:47:33.408Z,9.40
2019-05-22T05:50:03.360Z,8.18
2019-05-22T05:52:33.579Z,9.23
2019-05-22T05:55:03.535Z,9.25
2019-05-22T05:57:33.815Z,8.68
2019-05-22T06:00:03.769Z,8.68
2019-05-22T06:02:33.695Z,8.23
2019-05-22T06:07:42.988Z,10.23
2019-05-22T06:10:25.202Z,10.40
2019-05-22T06:12:55.127Z,9.58
2019-05-22T06:15:46.876Z,9.23
2019-05-22T06:18:31.417Z,10.28
2019-05-22T06:21:04.193Z,11.68
2019-05-22T06:23:31.675Z,12.80
2019-05-22T06:26:01.689Z,10.98
2019-05-22T06:36:41.050Z,12.00
2019-05-22T06:39:11.249Z,9.85
2019-05-22T06:41:41.184Z,10.50
2019-05-22T06:44:26.058Z,8.03
2019-05-22T06:46:56.026Z,8.23
2019-05-22T06:49:31.858Z,11.18
2019-05-22T06:52:01.905Z,8.83
2019-05-22T06:54:32.017Z,11.35
2019-05-22T06:57:02.247Z,12.65
2019-05-22T06:59:32.181Z,10.82
2019-05-22T07:02:02.130Z,13.03
2019-05-22T07:07:12.160Z,13.43
2019-05-22T07:09:41.317Z,14.70
2019-05-22T07:12:11.607Z,15.37
2019-05-22T07:17:20.561Z,15.32
2019-05-22T07:19:50.807Z,15.15
2019-05-22T07:22:21.010Z,16.52
2019-05-22T07:24:50.955Z,16.12
2019-05-22T07:27:23.894Z,18.92
2019-05-22T07:29:53.831Z,18.12
2019-05-22T07:32:23.769Z,18.35
2019-05-22T07:34:53.986Z,19.75
2019-05-22T07:37:23.940Z,19.07
2019-05-22T07:42:33.552Z,17.90
2019-05-22T07:45:03.499Z,20.50
2019-05-22T07:47:33.430Z,16.37
2019-05-22T07:50:03.373Z,15.45
2019-05-22T07:52:33.321Z,16.52
2019-05-22T07:57:42.870Z,17.65
2019-05-22T08:00:12.799Z,18.55
2019-05-22T08:05:24.831Z,17.62
2019-05-22T08:07:54.747Z,17.98
2019-05-22T08:10:24.663Z,16.95
2019-05-22T08:12:54.621Z,18.90
2019-05-22T08:15:24.544Z,19.07
2019-05-22T08:17:54.763Z,19.37
2019-05-22T08:20:25.004Z,19.32
2019-05-22T08:22:54.938Z,25.85
2019-05-22T08:25:24.893Z,22.10
2019-05-22T08:27:54.813Z,20.82
2019-05-22T08:30:24.767Z,20.35
2019-05-22T08:32:54.708Z,20.70
2019-05-22T08:35:24.660Z,21.48
2019-05-22T08:37:54.595Z,20.50
2019-05-22T08:40:24.529Z,18.77
2019-05-22T08:42:54.458Z,17.00
2019-05-22T08:45:24.467Z,19.37
2019-05-22T08:47:54.331Z,16.70
2019-05-22T08:50:24.316Z,16.57
2019-05-22T08:52:54.569Z,17.10
2019-05-22T08:55:24.511Z,21.42
2019-05-22T08:57:54.477Z,18.47
2019-05-22T09:00:24.416Z,15.13
2019-05-22T09:02:54.336Z,19.67
2019-05-22T09:05:24.304Z,16.17
2019-05-22T09:07:54.203Z,18.50
2019-05-22T09:10:26.248Z,15.80
2019-05-22T09:12:54.081Z,17.37
2019-05-22T09:18:03.739Z,18.80
2019-05-22T09:20:47.984Z,15.78
2019-05-22T09:23:03.613Z,13.30
2019-05-22T09:25:33.557Z,16.30
2019-05-22T09:28:03.810Z,18.00
2019-05-22T09:30:33.747Z,16.55
2019-05-22T09:33:03.678Z,14.45
2019-05-22T09:35:33.951Z,15.48
2019-05-22T09:38:03.884Z,14.95
2019-05-22T09:40:33.857Z,16.23
2019-05-22T09:43:03.974Z,14.45
2019-05-22T09:45:33.710Z,15.88
2019-05-22T09:48:03.657Z,15.15
2019-05-22T09:50:33.611Z,14.33
2019-05-22T09:53:03.528Z,15.10
2019-05-22T09:55:33.492Z,14.45
2019-05-22T09:58:03.685Z,16.97
2019-05-22T10:00:33.618Z,15.20
2019-05-22T10:03:03.948Z,18.45
2019-05-22T10:05:33.941Z,14.23
2019-05-22T10:08:03.858Z,12.90
2019-05-22T10:10:33.800Z,14.58
2019-05-22T10:13:03.739Z,13.05
2019-05-22T10:15:33.679Z,13.70
2019-05-22T10:18:03.641Z,14.87
2019-05-22T10:20:33.941Z,15.63
2019-05-22T10:23:14.719Z,11.90
2019-05-22T10:25:33.797Z,14.40
2019-05-22T10:28:04.003Z,12.88
2019-05-22T10:30:33.946Z,12.95
2019-05-22T10:33:03.897Z,15.35
2019-05-22T10:35:33.825Z,16.32
2019-05-22T10:38:04.035Z,14.60
2019-05-22T10:40:33.958Z,13.83
2019-05-22T10:43:03.938Z,13.65
2019-05-22T10:45:33.817Z,12.20
2019-05-22T10:48:03.753Z,13.13
2019-05-22T10:50:33.701Z,15.83
2019-05-22T10:53:03.643Z,13.85
2019-05-22T10:55:33.563Z,12.45
2019-05-22T10:58:03.497Z,12.55
2019-05-22T11:00:33.434Z,11.47
2019-05-22T11:03:03.375Z,13.88
2019-05-22T11:05:33.314Z,10.38
2019-05-22T11:08:03.606Z,10.45
2019-05-22T11:10:33.824Z,12.53
2019-05-22T11:13:03.740Z,9.80
2019-05-22T11:15:33.987Z,10.13
2019-05-22T11:18:03.908Z,10.20
2019-05-22T11:20:33.841Z,11.50
2019-05-22T11:23:03.792Z,12.93
2019-05-22T11:25:33.706Z,11.53
2019-05-22T11:28:03.635Z,11.37
2019-05-22T11:30:33.564Z,10.80
2019-05-22T11:33:03.489Z,11.78
2019-05-22T11:35:33.414Z,13.23
2019-05-22T11:38:03.705Z,10.50
2019-05-22T11:40:33.625Z,10.70
2019-05-22T11:43:03.566Z,10.73
2019-05-22T11:45:33.475Z,9.60
2019-05-22T11:48:03.713Z,12.90
2019-05-22T11:50:33.356Z,10.35
2019-05-22T11:53:03.301Z,10.18
2019-05-22T11:55:43.734Z,9.63
2019-05-22T11:58:03.444Z,13.30
2019-05-22T12:00:33.394Z,10.15
2019-05-22T12:03:03.645Z,10.00
2019-05-22T12:05:33.637Z,10.30
2019-05-22T12:08:03.565Z,11.33
2019-05-22T12:10:33.787Z,9.97
2019-05-22T12:13:04.018Z,9.65
2019-05-22T12:15:33.958Z,9.38
2019-05-22T12:18:03.899Z,11.08
2019-05-22T12:20:33.864Z,10.25
2019-05-22T12:23:03.778Z,10.15
2019-05-22T12:25:33.713Z,9.43
2019-05-22T12:28:03.670Z,10.00
2019-05-22T12:30:33.620Z,9.23
2019-05-22T12:33:03.560Z,8.93
2019-05-22T12:35:33.479Z,9.03
2019-05-22T12:38:03.768Z,10.72
2019-05-22T12:40:33.711Z,14.23
2019-05-22T12:43:03.629Z,9.03
2019-05-22T12:45:33.589Z,9.65
2019-05-22T12:48:03.496Z,8.43
2019-05-22T12:50:33.438Z,9.25
2019-05-22T12:53:03.395Z,8.03
2019-05-22T12:55:33.301Z,8.63
2019-05-22T12:58:03.234Z,9.00
2019-05-22T13:00:33.171Z,9.58
2019-05-22T13:03:03.091Z,8.43
2019-05-22T13:05:33.318Z,8.88
2019-05-22T13:08:03.261Z,10.35
2019-05-22T13:10:33.199Z,9.70
2019-05-22T13:13:03.470Z,8.58
2019-05-22T13:15:33.680Z,8.55
2019-05-22T13:18:03.737Z,8.80
2019-05-22T13:20:42.507Z,8.83
2019-05-22T13:23:03.620Z,8.30
2019-05-22T13:25:33.553Z,9.28
2019-05-22T13:28:03.514Z,8.15
2019-05-22T13:30:33.430Z,6.67
2019-05-22T13:33:03.681Z,5.85
2019-05-22T13:35:33.615Z,6.05
2019-05-22T13:38:03.549Z,7.05
2019-05-22T13:40:33.503Z,6.50
2019-05-22T13:45:43.077Z,7.13
2019-05-22T13:48:13.296Z,6.00
2019-05-22T13:50:43.247Z,6.87
2019-05-22T13:53:13.171Z,7.17
2019-05-22T13:55:43.095Z,5.55
2019-05-22T14:00:52.346Z,6.20
2019-05-22T14:03:22.272Z,5.70
2019-05-22T14:08:31.564Z,3.80
2019-05-22T14:11:01.492Z,4.95
2019-05-22T14:13:31.681Z,7.78
2019-05-22T14:16:01.623Z,5.72
2019-05-22T14:21:10.897Z,5.70
2019-05-22T14:23:41.065Z,7.08
2019-05-22T14:26:10.996Z,9.93
2019-05-22T14:28:41.204Z,8.73
2019-05-22T14:31:11.145Z,9.08
2019-05-22T14:33:41.336Z,9.90
2019-05-22T14:36:11.276Z,8.40
2019-05-22T14:41:20.925Z,9.83
2019-05-22T14:43:50.846Z,9.95
2019-05-22T14:46:21.159Z,8.85
2019-05-22T14:48:51.092Z,8.50
2019-05-22T14:51:21.295Z,8.63
2019-05-22T14:56:30.571Z,8.98
2019-05-22T14:59:00.846Z,7.95
2019-05-22T15:01:31.123Z,10.40
2019-05-22T15:04:01.009Z,8.08
2019-05-22T15:06:30.957Z,8.23
2019-05-22T15:09:00.933Z,8.18
2019-05-22T15:11:30.871Z,8.43
2019-05-22T15:14:00.790Z,8.00
2019-05-22T15:16:30.742Z,10.55
2019-05-22T15:19:00.678Z,9.85
2019-05-22T15:21:30.607Z,12.28
2019-05-22T15:24:00.903Z,11.90
2019-05-22T15:26:30.831Z,12.47
2019-05-22T15:29:00.770Z,15.98
2019-05-22T15:31:30.708Z,68.30
2019-05-22T15:34:00.970Z,29.60
2019-05-22T15:36:30.899Z,15.93
2019-05-22T15:39:01.246Z,11.95
2019-05-22T15:44:10.484Z,11.03
2019-05-22T15:46:40.403Z,25.57
2019-05-22T15:49:10.348Z,41.75
2019-05-22T15:51:40.290Z,12.35
2019-05-22T15:54:10.264Z,13.03
2019-05-22T15:56:40.163Z,11.73
2019-05-22T15:59:10.115Z,10.80
2019-05-22T16:01:40.026Z,11.70
2019-05-22T16:06:49.033Z,13.25
2019-05-22T16:09:19.122Z,12.75
2019-05-22T16:14:28.257Z,10.32
2019-05-22T16:16:58.211Z,13.78
2019-05-22T16:19:28.482Z,10.85
2019-05-22T16:21:58.446Z,13.62
2019-05-22T16:24:28.660Z,11.18
2019-05-22T16:26:58.845Z,10.38
2019-05-22T16:29:29.187Z,10.95
2019-05-22T16:31:59.095Z,12.10
2019-05-22T16:37:08.396Z,12.13
2019-05-22T16:39:38.363Z,11.83
2019-05-22T16:42:08.271Z,10.85
2019-05-22T16:44:38.227Z,8.75
2019-05-22T16:47:08.158Z,9.78
2019-05-22T16:49:38.101Z,7.97
2019-05-22T16:52:08.307Z,7.08
2019-05-22T16:54:38.240Z,10.98
2019-05-22T16:57:08.197Z,7.37
2019-05-22T17:02:17.456Z,8.13
2019-05-22T17:04:47.696Z,7.43
2019-05-22T17:07:17.922Z,5.85
2019-05-22T17:12:27.576Z,9.98
2019-05-22T17:14:57.828Z,6.80
2019-05-22T17:17:27.745Z,10.50
2019-05-22T17:19:57.691Z,7.30
2019-05-22T17:22:27.979Z,8.03
2019-05-22T17:27:37.528Z,6.45
2019-05-22T17:30:07.749Z,6.42
2019-05-22T17:32:37.941Z,5.72
2019-05-22T17:35:07.886Z,6.70
2019-05-22T17:37:37.807Z,5.72
2019-05-22T17:40:08.431Z,6.97
2019-05-22T17:42:38.285Z,5.97
2019-05-22T17:45:08.294Z,5.95
2019-05-22T17:47:38.206Z,6.08
2019-05-22T17:50:25.452Z,9.95
2019-05-22T17:52:40.830Z,5.15
2019-05-22T17:55:11.076Z,6.87
2019-05-22T17:57:41.023Z,5.97
2019-05-22T18:00:10.964Z,5.53
2019-05-22T18:02:41.209Z,5.20
2019-05-22T18:07:52.508Z,6.42
2019-05-22T18:10:22.453Z,5.50
2019-05-22T18:12:52.745Z,7.00
2019-05-22T18:15:22.964Z,5.67
2019-05-22T18:17:52.887Z,6.35
2019-05-22T18:20:22.911Z,6.72
2019-05-22T18:22:52.857Z,5.95
2019-05-22T18:25:22.775Z,5.30
2019-05-22T18:27:52.712Z,8.08
2019-05-22T18:30:22.672Z,5.65
2019-05-22T18:32:52.620Z,6.85
2019-05-22T18:35:22.540Z,6.58
2019-05-22T18:37:52.462Z,6.35
2019-05-22T18:40:22.703Z,4.72
2019-05-22T18:42:53.063Z,5.15
2019-05-22T18:45:23.373Z,7.30
2019-05-22T18:47:53.705Z,5.12
2019-05-22T18:50:23.642Z,6.73
2019-05-22T18:52:53.814Z,4.80
2019-05-22T18:55:23.745Z,5.35
2019-05-22T18:57:53.781Z,6.28
2019-05-22T19:00:23.710Z,5.10
2019-05-22T19:02:53.798Z,6.97
2019-05-22T19:05:23.712Z,5.42
2019-05-22T19:07:53.815Z,8.53
2019-05-22T19:13:03.488Z,6.53
2019-05-22T19:15:33.856Z,6.10
2019-05-22T19:18:03.809Z,5.90
2019-05-22T19:20:33.843Z,7.20
2019-05-22T19:23:03.752Z,6.53
2019-05-22T19:25:33.808Z,6.60
2019-05-22T19:28:04.120Z,5.08
2019-05-22T19:30:34.032Z,6.65
2019-05-22T19:33:04.159Z,7.33
2019-05-22T19:35:34.426Z,5.40
2019-05-22T19:40:44.410Z,6.70
2019-05-22T19:43:14.711Z,6.90
2019-05-22T19:45:44.691Z,6.40
2019-05-22T19:48:14.729Z,5.95
2019-05-22T19:50:45.298Z,6.95
2019-05-22T19:53:19.149Z,6.40
2019-05-22T19:55:45.018Z,5.05
2019-05-22T19:58:14.924Z,6.03
2019-05-22T20:00:45.115Z,5.92
2019-05-22T20:03:15.077Z,5.33
2019-05-22T20:05:45.352Z,8.40
2019-05-22T20:08:15.317Z,6.65
2019-05-22T20:10:45.212Z,6.87
2019-05-22T20:13:15.158Z,10.00
2019-05-22T20:15:45.074Z,6.95
2019-05-22T20:18:15.017Z,8.27
2019-05-22T20:20:44.947Z,5.95
2019-05-22T20:23:14.892Z,6.78
2019-05-22T20:25:44.847Z,6.20
2019-05-22T20:28:14.785Z,7.15
2019-05-22T20:30:44.709Z,5.17
2019-05-22T20:33:14.876Z,5.70
2019-05-22T20:35:44.749Z,6.92
2019-05-22T20:38:14.693Z,7.65
2019-05-22T20:40:44.622Z,7.05
2019-05-22T20:43:14.577Z,5.03
2019-05-22T20:45:44.505Z,6.05
2019-05-22T20:48:14.699Z,6.37
2019-05-22T20:50:44.938Z,6.37
2019-05-22T20:53:15.122Z,5.28
2019-05-22T20:55:45.090Z,7.95
2019-05-22T20:58:15.277Z,5.47
2019-05-22T21:00:45.193Z,6.13
2019-05-22T21:03:15.125Z,7.30
2019-05-22T21:05:45.039Z,6.78
2019-05-22T21:08:15.364Z,4.87
2019-05-22T21:10:45.810Z,8.35
2019-05-22T21:13:15.732Z,6.10
2019-05-22T21:15:45.997Z,5.28
2019-05-22T21:18:15.944Z,7.28
2019-05-22T21:20:54.887Z,6.03
2019-05-22T21:23:15.844Z,5.87
2019-05-22T21:25:45.789Z,4.67
2019-05-22T21:28:15.718Z,5.80
2019-05-22T21:30:45.630Z,8.53
2019-05-22T21:33:15.894Z,7.60
2019-05-22T21:35:45.808Z,5.87
2019-05-22T21:38:15.733Z,5.00
2019-05-22T21:40:45.653Z,6.77
2019-05-22T21:43:15.825Z,6.77
2019-05-22T21:45:45.760Z,8.43
2019-05-22T21:48:15.949Z,5.27
2019-05-22T21:50:45.870Z,8.30
2019-05-22T21:53:16.133Z,5.13
2019-05-22T21:55:46.287Z,5.23
2019-05-22T21:58:16.215Z,6.50
2019-05-22T22:03:25.808Z,7.80
2019-05-22T22:05:56.027Z,6.07
2019-05-22T22:08:26.298Z,8.00
2019-05-22T22:10:56.223Z,5.80
2019-05-22T22:13:26.488Z,5.70
2019-05-22T22:15:56.415Z,6.13
2019-05-22T22:18:26.624Z,9.73
2019-05-22T22:20:56.542Z,6.60
2019-05-22T22:23:26.505Z,6.63
2019-05-22T22:25:56.417Z,5.97
2019-05-22T22:28:26.688Z,7.03
2019-05-22T22:30:56.616Z,9.88
2019-05-22T22:33:29.264Z,5.90
2019-05-22T22:35:59.490Z,6.03
2019-05-22T22:41:09.053Z,5.80
2019-05-22T22:43:38.975Z,7.80
2019-05-22T22:48:48.219Z,5.90
2019-05-22T22:51:18.153Z,7.23
2019-05-22T22:53:48.460Z,7.00
2019-05-22T22:56:18.388Z,8.77
2019-05-22T22:58:48.592Z,6.80
2019-05-22T23:01:25.060Z,8.80
2019-05-22T23:03:54.997Z,7.50
2019-05-22T23:06:24.905Z,7.37
2019-05-22T23:08:54.853Z,7.27
2019-05-22T23:11:25.117Z,8.77
2019-05-22T23:13:55.055Z,9.10
2019-05-22T23:16:25.344Z,6.53
2019-05-22T23:18:57.892Z,6.30
2019-05-22T23:21:27.277Z,9.60
2019-05-22T23:23:57.038Z,9.07
2019-05-22T23:26:27.261Z,8.53
2019-05-22T23:28:57.174Z,8.23
2019-05-22T23:34:06.450Z,9.50
2019-05-22T23:36:36.352Z,7.23
2019-05-22T23:41:45.987Z,6.27
2019-05-22T23:46:55.537Z,7.47
2019-05-22T23:49:25.465Z,7.27
2019-05-22T23:51:55.376Z,8.27
2019-05-22T23:54:25.336Z,9.60
2019-05-22T23:59:34.845Z,8.00
